sensor_id;sensor_type;location;lat;lon;timestamp;pressure;altitude;pressure_sealevel;temperature;humidity
85066;BME280;75401;52.588;13.224;2024-02-15T00:00:59;101442.25;;;12.21;80.74
85066;BME280;75401;52.588;13.224;2024-02-15T00:03:25;101450.31;;;12.11;80.94
85066;BME280;75401;52.588;13.224;2024-02-15T00:05:50;101444.38;;;12.17;80.53
85066;BME280;75401;52.588;13.224;2024-02-15T00:08:16;101444.81;;;12.13;80.78
85066;BME280;75401;52.588;13.224;2024-02-15T00:10:41;101439.72;;;12.19;80.77
85066;BME280;75401;52.588;13.224;2024-02-15T00:13:08;101438.56;;;12.22;80.71
85066;BME280;75401;52.588;13.224;2024-02-15T00:15:33;101442.81;;;12.24;80.61
85066;BME280;75401;52.588;13.224;2024-02-15T00:17:58;101442.09;;;12.22;80.64
85066;BME280;75401;52.588;13.224;2024-02-15T00:20:24;101451.28;;;12.20;80.72
85066;BME280;75401;52.588;13.224;2024-02-15T00:22:50;101446.94;;;12.19;80.77
85066;BME280;75401;52.588;13.224;2024-02-15T00:25:15;101448.88;;;12.17;80.93
85066;BME280;75401;52.588;13.224;2024-02-15T00:27:41;101445.97;;;12.10;81.23
85066;BME280;75401;52.588;13.224;2024-02-15T00:30:09;101433.25;;;12.12;81.07
85066;BME280;75401;52.588;13.224;2024-02-15T00:32:34;101442.97;;;12.04;81.50
85066;BME280;75401;52.588;13.224;2024-02-15T00:34:59;101436.34;;;12.08;81.02
85066;BME280;75401;52.588;13.224;2024-02-15T00:37:25;101431.94;;;12.16;80.98
85066;BME280;75401;52.588;13.224;2024-02-15T00:39:50;101437.75;;;12.21;80.66
85066;BME280;75401;52.588;13.224;2024-02-15T00:42:15;101440.97;;;12.25;80.38
85066;BME280;75401;52.588;13.224;2024-02-15T00:44:41;101435.91;;;12.22;81.00
85066;BME280;75401;52.588;13.224;2024-02-15T00:47:09;101447.63;;;12.21;81.16
85066;BME280;75401;52.588;13.224;2024-02-15T00:49:35;101440.81;;;12.36;80.32
85066;BME280;75401;52.588;13.224;2024-02-15T00:52:01;101434.44;;;12.37;80.08
85066;BME280;75401;52.588;13.224;2024-02-15T00:54:26;101443.34;;;12.37;80.34
85066;BME280;75401;52.588;13.224;2024-02-15T00:56:51;101443.22;;;12.39;79.91
85066;BME280;75401;52.588;13.224;2024-02-15T00:59:17;101442.88;;;12.42;80.11
85066;BME280;75401;52.588;13.224;2024-02-15T01:01:42;101448.75;;;12.28;80.58
85066;BME280;75401;52.588;13.224;2024-02-15T01:04:08;101436.44;;;12.35;80.33
85066;BME280;75401;52.588;13.224;2024-02-15T01:06:34;101437.00;;;12.38;80.39
85066;BME280;75401;52.588;13.224;2024-02-15T01:08:59;101441.34;;;12.39;80.29
85066;BME280;75401;52.588;13.224;2024-02-15T01:11:25;101441.91;;;12.43;80.33
85066;BME280;75401;52.588;13.224;2024-02-15T01:13:50;101451.81;;;12.33;80.01
85066;BME280;75401;52.588;13.224;2024-02-15T01:16:15;101446.88;;;12.38;80.18
85066;BME280;75401;52.588;13.224;2024-02-15T01:18:41;101439.81;;;12.37;80.64
85066;BME280;75401;52.588;13.224;2024-02-15T01:21:07;101440.66;;;12.37;80.34
85066;BME280;75401;52.588;13.224;2024-02-15T01:23:33;101432.47;;;12.39;80.72
85066;BME280;75401;52.588;13.224;2024-02-15T01:25:58;101437.72;;;12.31;80.66
85066;BME280;75401;52.588;13.224;2024-02-15T01:28:23;101439.69;;;12.38;80.71
85066;BME280;75401;52.588;13.224;2024-02-15T01:30:49;101439.69;;;12.38;80.27
85066;BME280;75401;52.588;13.224;2024-02-15T01:33:14;101440.94;;;12.44;80.25
85066;BME280;75401;52.588;13.224;2024-02-15T01:35:39;101438.09;;;12.45;80.39
85066;BME280;75401;52.588;13.224;2024-02-15T01:38:06;101439.78;;;12.46;80.47
85066;BME280;75401;52.588;13.224;2024-02-15T01:40:31;101430.44;;;12.50;80.03
85066;BME280;75401;52.588;13.224;2024-02-15T01:42:57;101438.66;;;12.49;80.03
85066;BME280;75401;52.588;13.224;2024-02-15T01:45:22;101436.84;;;12.40;81.03
85066;BME280;75401;52.588;13.224;2024-02-15T01:47:48;101418.94;;;12.31;80.87
85066;BME280;75401;52.588;13.224;2024-02-15T01:50:14;101433.47;;;12.38;80.64
85066;BME280;75401;52.588;13.224;2024-02-15T01:52:40;101432.16;;;12.42;80.61
85066;BME280;75401;52.588;13.224;2024-02-15T01:55:08;101423.69;;;12.37;80.89
85066;BME280;75401;52.588;13.224;2024-02-15T01:57:34;101419.19;;;12.37;80.91
85066;BME280;75401;52.588;13.224;2024-02-15T02:00:00;101429.47;;;12.42;80.89
85066;BME280;75401;52.588;13.224;2024-02-15T02:02:28;101419.47;;;12.44;80.38
85066;BME280;75401;52.588;13.224;2024-02-15T02:04:56;101421.44;;;12.42;80.98
85066;BME280;75401;52.588;13.224;2024-02-15T02:07:21;101421.13;;;12.45;81.03
85066;BME280;75401;52.588;13.224;2024-02-15T02:09:47;101420.72;;;12.40;81.14
85066;BME280;75401;52.588;13.224;2024-02-15T02:12:14;101417.53;;;12.36;81.00
85066;BME280;75401;52.588;13.224;2024-02-15T02:14:39;101419.47;;;12.44;81.00
85066;BME280;75401;52.588;13.224;2024-02-15T02:17:11;101419.16;;;12.47;80.76
85066;BME280;75401;52.588;13.224;2024-02-15T02:19:36;101410.84;;;12.40;80.95
85066;BME280;75401;52.588;13.224;2024-02-15T02:22:02;101415.94;;;12.43;80.67
85066;BME280;75401;52.588;13.224;2024-02-15T02:24:28;101401.91;;;12.49;80.71
85066;BME280;75401;52.588;13.224;2024-02-15T02:26:59;101409.25;;;12.47;80.97
85066;BME280;75401;52.588;13.224;2024-02-15T02:29:24;101413.78;;;12.47;81.11
85066;BME280;75401;52.588;13.224;2024-02-15T02:31:49;101410.97;;;12.48;80.99
85066;BME280;75401;52.588;13.224;2024-02-15T02:34:15;101415.94;;;12.43;81.20
85066;BME280;75401;52.588;13.224;2024-02-15T02:36:43;101420.28;;;12.44;81.32
85066;BME280;75401;52.588;13.224;2024-02-15T02:39:08;101420.28;;;12.44;81.17
85066;BME280;75401;52.588;13.224;2024-02-15T02:41:34;101412.50;;;12.51;80.62
85066;BME280;75401;52.588;13.224;2024-02-15T02:44:00;101418.16;;;12.48;81.13
85066;BME280;75401;52.588;13.224;2024-02-15T02:46:26;101410.56;;;12.43;81.13
85066;BME280;75401;52.588;13.224;2024-02-15T02:48:51;101414.19;;;12.52;80.71
85066;BME280;75401;52.588;13.224;2024-02-15T02:51:17;101414.06;;;12.53;80.99
85066;BME280;75401;52.588;13.224;2024-02-15T02:53:42;101419.66;;;12.60;80.70
85066;BME280;75401;52.588;13.224;2024-02-15T02:56:08;101413.75;;;12.56;80.75
85066;BME280;75401;52.588;13.224;2024-02-15T02:58:33;101423.50;;;12.57;80.83
85066;BME280;75401;52.588;13.224;2024-02-15T03:01:00;101417.38;;;12.65;80.79
85066;BME280;75401;52.588;13.224;2024-02-15T03:03:25;101411.03;;;12.66;80.55
85066;BME280;75401;52.588;13.224;2024-02-15T03:05:51;101416.69;;;12.63;80.73
85066;BME280;75401;52.588;13.224;2024-02-15T03:08:16;101414.16;;;12.61;80.75
85066;BME280;75401;52.588;13.224;2024-02-15T03:10:41;101419.09;;;12.66;80.90
85066;BME280;75401;52.588;13.224;2024-02-15T03:13:07;101410.06;;;12.67;80.39
85066;BME280;75401;52.588;13.224;2024-02-15T03:15:32;101415.44;;;12.57;81.03
85066;BME280;75401;52.588;13.224;2024-02-15T03:17:59;101409.66;;;12.62;80.91
85066;BME280;75401;52.588;13.224;2024-02-15T03:20:24;101406.34;;;12.68;80.69
85066;BME280;75401;52.588;13.224;2024-02-15T03:22:53;101416.69;;;12.63;80.94
85066;BME280;75401;52.588;13.224;2024-02-15T03:25:18;101411.38;;;12.53;80.86
85066;BME280;75401;52.588;13.224;2024-02-15T03:27:44;101418.00;;;12.59;81.00
85066;BME280;75401;52.588;13.224;2024-02-15T03:30:10;101420.69;;;12.59;80.50
85066;BME280;75401;52.588;13.224;2024-02-15T03:32:36;101414.91;;;12.54;81.57
85066;BME280;75401;52.588;13.224;2024-02-15T03:35:03;101419.97;;;12.57;81.22
85066;BME280;75401;52.588;13.224;2024-02-15T03:37:28;101416.69;;;12.63;80.89
85066;BME280;75401;52.588;13.224;2024-02-15T03:39:53;101414.69;;;12.65;81.27
85066;BME280;75401;52.588;13.224;2024-02-15T03:42:19;101414.28;;;12.70;80.70
85066;BME280;75401;52.588;13.224;2024-02-15T03:44:44;101426.56;;;12.72;80.54
85066;BME280;75401;52.588;13.224;2024-02-15T03:47:10;101419.03;;;12.76;80.60
85066;BME280;75401;52.588;13.224;2024-02-15T03:49:35;101419.66;;;12.70;80.79
85066;BME280;75401;52.588;13.224;2024-02-15T03:52:01;101416.50;;;12.74;80.58
85066;BME280;75401;52.588;13.224;2024-02-15T03:54:27;101417.09;;;12.68;80.65
85066;BME280;75401;52.588;13.224;2024-02-15T03:56:52;101419.53;;;12.61;81.27
85066;BME280;75401;52.588;13.224;2024-02-15T03:59:18;101415.94;;;12.71;80.87
85066;BME280;75401;52.588;13.224;2024-02-15T04:01:43;101416.25;;;12.68;80.86
85066;BME280;75401;52.588;13.224;2024-02-15T04:04:09;101417.34;;;12.75;80.70
85066;BME280;75401;52.588;13.224;2024-02-15T04:06:34;101413.13;;;12.72;80.83
85066;BME280;75401;52.588;13.224;2024-02-15T04:09:01;101423.47;;;12.67;81.19
85066;BME280;75401;52.588;13.224;2024-02-15T04:11:26;101420.78;;;12.67;81.01
85066;BME280;75401;52.588;13.224;2024-02-15T04:13:51;101421.03;;;12.74;81.01
85066;BME280;75401;52.588;13.224;2024-02-15T04:16:17;101424.00;;;12.71;81.20
85066;BME280;75401;52.588;13.224;2024-02-15T04:18:42;101429.94;;;12.74;80.89
85066;BME280;75401;52.588;13.224;2024-02-15T04:21:07;101428.63;;;12.78;80.89
85066;BME280;75401;52.588;13.224;2024-02-15T04:23:33;101421.59;;;12.68;81.27
85066;BME280;75401;52.588;13.224;2024-02-15T04:25:59;101419.66;;;12.70;81.25
85066;BME280;75401;52.588;13.224;2024-02-15T04:28:25;101412.81;;;12.75;80.85
85066;BME280;75401;52.588;13.224;2024-02-15T04:30:50;101418.28;;;12.83;80.53
85066;BME280;75401;52.588;13.224;2024-02-15T04:33:15;101419.31;;;12.82;80.50
85066;BME280;75401;52.588;13.224;2024-02-15T04:35:41;101417.75;;;12.80;80.52
85066;BME280;75401;52.588;13.224;2024-02-15T04:38:06;101419.88;;;12.76;81.21
85066;BME280;75401;52.588;13.224;2024-02-15T04:40:32;101417.31;;;12.84;80.61
85066;BME280;75401;52.588;13.224;2024-02-15T04:42:58;101415.31;;;12.86;80.55
85066;BME280;75401;52.588;13.224;2024-02-15T04:45:24;101413.38;;;12.79;80.69
85066;BME280;75401;52.588;13.224;2024-02-15T04:47:49;101416.06;;;12.79;81.01
85066;BME280;75401;52.588;13.224;2024-02-15T04:50:16;101419.03;;;12.76;81.12
85066;BME280;75401;52.588;13.224;2024-02-15T04:52:42;101417.44;;;12.83;80.63
85066;BME280;75401;52.588;13.224;2024-02-15T04:55:08;101411.38;;;12.81;80.81
85066;BME280;75401;52.588;13.224;2024-02-15T04:57:33;101417.44;;;12.83;80.50
85066;BME280;75401;52.588;13.224;2024-02-15T05:00:00;101420.97;;;12.83;80.67
85066;BME280;75401;52.588;13.224;2024-02-15T05:02:25;101411.63;;;12.87;80.52
85066;BME280;75401;52.588;13.224;2024-02-15T05:04:50;101430.28;;;12.89;80.66
85066;BME280;75401;52.588;13.224;2024-02-15T05:07:15;101421.94;;;12.92;80.32
85066;BME280;75401;52.588;13.224;2024-02-15T05:09:41;101430.84;;;12.92;80.75
85066;BME280;75401;52.588;13.224;2024-02-15T05:12:06;101429.53;;;12.96;80.20
85066;BME280;75401;52.588;13.224;2024-02-15T05:14:31;101425.00;;;12.97;79.96
85066;BME280;75401;52.588;13.224;2024-02-15T05:17:01;101420.38;;;12.89;80.62
85066;BME280;75401;52.588;13.224;2024-02-15T05:19:27;101423.47;;;12.94;80.64
85066;BME280;75401;52.588;13.224;2024-02-15T05:21:52;101433.66;;;12.91;80.63
85066;BME280;75401;52.588;13.224;2024-02-15T05:24:17;101424.59;;;12.92;80.53
85066;BME280;75401;52.588;13.224;2024-02-15T05:26:44;101428.72;;;12.86;80.81
85066;BME280;75401;52.588;13.224;2024-02-15T05:29:10;101426.00;;;12.96;80.44
85066;BME280;75401;52.588;13.224;2024-02-15T05:31:35;101428.56;;;12.88;80.91
85066;BME280;75401;52.588;13.224;2024-02-15T05:34:02;101427.69;;;12.97;80.58
85066;BME280;75401;52.588;13.224;2024-02-15T05:36:27;101432.81;;;12.90;80.75
85066;BME280;75401;52.588;13.224;2024-02-15T05:38:53;101425.88;;;12.88;80.76
85066;BME280;75401;52.588;13.224;2024-02-15T05:41:19;101420.63;;;12.96;80.38
85066;BME280;75401;52.588;13.224;2024-02-15T05:43:45;101430.66;;;12.94;80.49
85066;BME280;75401;52.588;13.224;2024-02-15T05:46:10;101429.13;;;12.91;80.72
85066;BME280;75401;52.588;13.224;2024-02-15T05:48:36;101432.09;;;12.88;80.91
85066;BME280;75401;52.588;13.224;2024-02-15T05:51:04;101417.00;;;12.87;80.93
85066;BME280;75401;52.588;13.224;2024-02-15T05:53:29;101437.06;;;12.93;80.68
85066;BME280;75401;52.588;13.224;2024-02-15T05:55:55;101433.75;;;12.99;80.52
85066;BME280;75401;52.588;13.224;2024-02-15T05:58:20;101426.31;;;12.93;80.83
85066;BME280;75401;52.588;13.224;2024-02-15T06:00:46;101422.38;;;12.87;80.51
85066;BME280;75401;52.588;13.224;2024-02-15T06:03:11;101429.13;;;12.91;80.88
85066;BME280;75401;52.588;13.224;2024-02-15T06:05:37;101427.22;;;13.01;80.54
85066;BME280;75401;52.588;13.224;2024-02-15T06:08:04;101427.09;;;13.03;80.45
85066;BME280;75401;52.588;13.224;2024-02-15T06:10:30;101425.41;;;13.02;80.50
85066;BME280;75401;52.588;13.224;2024-02-15T06:12:56;101426.53;;;12.99;80.91
85066;BME280;75401;52.588;13.224;2024-02-15T06:15:21;101430.22;;;13.08;80.42
85066;BME280;75401;52.588;13.224;2024-02-15T06:17:47;101431.03;;;13.08;80.34
85066;BME280;75401;52.588;13.224;2024-02-15T06:20:12;101427.66;;;13.06;80.56
85066;BME280;75401;52.588;13.224;2024-02-15T06:22:38;101432.06;;;13.07;80.56
85066;BME280;75401;52.588;13.224;2024-02-15T06:25:05;101433.59;;;13.10;80.59
85066;BME280;75401;52.588;13.224;2024-02-15T06:27:31;101426.94;;;13.04;80.72
85066;BME280;75401;52.588;13.224;2024-02-15T06:29:56;101438.44;;;12.97;81.46
85066;BME280;75401;52.588;13.224;2024-02-15T06:32:21;101440.97;;;12.98;80.97
85066;BME280;75401;52.588;13.224;2024-02-15T06:34:46;101442.50;;;13.10;80.56
85066;BME280;75401;52.588;13.224;2024-02-15T06:37:35;101447.03;;;13.10;80.76
85066;BME280;75401;52.588;13.224;2024-02-15T06:40:00;101447.53;;;13.13;80.32
85066;BME280;75401;52.588;13.224;2024-02-15T06:42:27;101442.78;;;13.07;80.77
85066;BME280;75401;52.588;13.224;2024-02-15T06:44:52;101448.56;;;13.12;80.64
85066;BME280;75401;52.588;13.224;2024-02-15T06:47:18;101456.00;;;13.18;79.98
85066;BME280;75401;52.588;13.224;2024-02-15T06:49:45;101452.63;;;13.16;80.20
85066;BME280;75401;52.588;13.224;2024-02-15T06:52:11;101462.09;;;13.20;80.55
85066;BME280;75401;52.588;13.224;2024-02-15T06:54:36;101458.84;;;13.17;80.46
85066;BME280;75401;52.588;13.224;2024-02-15T06:57:02;101461.94;;;13.22;80.34
85066;BME280;75401;52.588;13.224;2024-02-15T06:59:29;101469.81;;;13.23;80.42
85066;BME280;75401;52.588;13.224;2024-02-15T07:01:54;101466.00;;;13.26;80.08
85066;BME280;75401;52.588;13.224;2024-02-15T07:04:19;101466.00;;;13.26;80.23
85066;BME280;75401;52.588;13.224;2024-02-15T07:06:45;101474.59;;;13.30;80.02
85066;BME280;75401;52.588;13.224;2024-02-15T07:09:10;101473.66;;;13.21;80.53
85066;BME280;75401;52.588;13.224;2024-02-15T07:11:35;101479.97;;;13.30;80.16
85066;BME280;75401;52.588;13.224;2024-02-15T07:14:01;101475.53;;;13.20;80.38
85066;BME280;75401;52.588;13.224;2024-02-15T07:16:28;101479.00;;;13.31;80.10
85066;BME280;75401;52.588;13.224;2024-02-15T07:18:53;101473.81;;;13.19;80.32
85066;BME280;75401;52.588;13.224;2024-02-15T07:21:19;101464.31;;;13.25;80.27
85066;BME280;75401;52.588;13.224;2024-02-15T07:23:44;101461.44;;;13.36;80.30
85066;BME280;75401;52.588;13.224;2024-02-15T07:26:10;101463.66;;;13.41;80.21
85066;BME280;75401;52.588;13.224;2024-02-15T07:28:35;101468.63;;;13.36;80.33
85066;BME280;75401;52.588;13.224;2024-02-15T07:31:00;101467.59;;;13.46;79.98
85066;BME280;75401;52.588;13.224;2024-02-15T07:33:27;101473.78;;;13.47;79.85
85066;BME280;75401;52.588;13.224;2024-02-15T07:35:52;101465.31;;;13.42;80.12
85066;BME280;75401;52.588;13.224;2024-02-15T07:38:18;101459.06;;;13.51;80.02
85066;BME280;75401;52.588;13.224;2024-02-15T07:40:43;101471.34;;;13.53;79.89
85066;BME280;75401;52.588;13.224;2024-02-15T07:43:08;101474.56;;;13.57;79.82
85066;BME280;75401;52.588;13.224;2024-02-15T07:45:34;101468.97;;;13.50;79.86
85066;BME280;75401;52.588;13.224;2024-02-15T07:47:59;101468.97;;;13.50;79.98
85066;BME280;75401;52.588;13.224;2024-02-15T07:50:26;101464.34;;;13.60;79.95
85066;BME280;75401;52.588;13.224;2024-02-15T07:52:51;101468.75;;;13.61;80.05
85066;BME280;75401;52.588;13.224;2024-02-15T07:55:17;101474.94;;;13.62;79.73
85066;BME280;75401;52.588;13.224;2024-02-15T07:57:42;101473.81;;;13.64;79.67
85066;BME280;75401;52.588;13.224;2024-02-15T08:00:08;101476.34;;;13.66;79.83
85066;BME280;75401;52.588;13.224;2024-02-15T08:02:34;101480.94;;;13.73;79.30
85066;BME280;75401;52.588;13.224;2024-02-15T08:04:59;101475.88;;;13.70;79.54
85066;BME280;75401;52.588;13.224;2024-02-15T08:07:26;101478.94;;;13.58;79.70
85066;BME280;75401;52.588;13.224;2024-02-15T08:09:51;101480.25;;;13.71;79.55
85066;BME280;75401;52.588;13.224;2024-02-15T08:12:16;101479.41;;;13.71;79.50
85066;BME280;75401;52.588;13.224;2024-02-15T08:14:42;101476.81;;;13.79;79.17
85066;BME280;75401;52.588;13.224;2024-02-15T08:17:07;101478.19;;;13.83;79.36
85066;BME280;75401;52.588;13.224;2024-02-15T08:19:32;101474.31;;;13.85;79.32
85066;BME280;75401;52.588;13.224;2024-02-15T08:22:03;101478.09;;;13.75;79.33
85066;BME280;75401;52.588;13.224;2024-02-15T08:24:30;101489.19;;;13.90;79.09
85066;BME280;75401;52.588;13.224;2024-02-15T08:26:56;101483.47;;;13.93;79.01
85066;BME280;75401;52.588;13.224;2024-02-15T08:29:22;101481.94;;;13.90;78.80
85066;BME280;75401;52.588;13.224;2024-02-15T08:31:47;101487.31;;;13.90;79.10
85066;BME280;75401;52.588;13.224;2024-02-15T08:34:12;101483.84;;;13.98;78.85
85066;BME280;75401;52.588;13.224;2024-02-15T08:36:38;101479.97;;;13.92;79.08
85066;BME280;75401;52.588;13.224;2024-02-15T08:39:03;101470.72;;;13.95;79.03
85066;BME280;75401;52.588;13.224;2024-02-15T08:41:29;101469.72;;;13.96;79.03
85066;BME280;75401;52.588;13.224;2024-02-15T08:43:55;101471.94;;;14.00;79.13
85066;BME280;75401;52.588;13.224;2024-02-15T08:46:20;101472.47;;;14.04;78.97
85066;BME280;75401;52.588;13.224;2024-02-15T08:48:46;101472.00;;;14.08;79.00
85066;BME280;75401;52.588;13.224;2024-02-15T08:51:11;101463.94;;;14.08;78.64
85066;BME280;75401;52.588;13.224;2024-02-15T08:53:36;101478.84;;;14.20;78.81
85066;BME280;75401;52.588;13.224;2024-02-15T08:56:02;101469.75;;;14.21;78.65
85066;BME280;75401;52.588;13.224;2024-02-15T08:58:29;101477.81;;;14.21;78.74
85066;BME280;75401;52.588;13.224;2024-02-15T09:00:54;101472.44;;;14.21;78.96
85066;BME280;75401;52.588;13.224;2024-02-15T09:03:20;101476.16;;;14.20;78.59
85066;BME280;75401;52.588;13.224;2024-02-15T09:05:46;101474.22;;;14.30;78.57
85066;BME280;75401;52.588;13.224;2024-02-15T09:08:11;101482.38;;;14.38;78.73
85066;BME280;75401;52.588;13.224;2024-02-15T09:10:36;101480.38;;;14.40;78.58
85066;BME280;75401;52.588;13.224;2024-02-15T09:13:02;101480.69;;;14.37;78.62
85066;BME280;75401;52.588;13.224;2024-02-15T09:15:28;101482.56;;;14.45;78.39
85066;BME280;75401;52.588;13.224;2024-02-15T09:17:54;101478.84;;;14.38;78.20
85066;BME280;75401;52.588;13.224;2024-02-15T09:20:19;101483.25;;;14.47;78.17
85066;BME280;75401;52.588;13.224;2024-02-15T09:22:47;101483.13;;;14.57;78.02
85066;BME280;75401;52.588;13.224;2024-02-15T09:25:13;101484.00;;;14.57;77.68
85066;BME280;75401;52.588;13.224;2024-02-15T09:27:38;101478.56;;;14.49;78.19
85066;BME280;75401;52.588;13.224;2024-02-15T09:30:05;101484.28;;;14.46;77.76
85066;BME280;75401;52.588;13.224;2024-02-15T09:32:31;101481.03;;;14.42;77.95
85066;BME280;75401;52.588;13.224;2024-02-15T09:34:57;101484.66;;;14.59;77.71
85066;BME280;75401;52.588;13.224;2024-02-15T09:37:22;101488.38;;;14.58;77.42
85066;BME280;75401;52.588;13.224;2024-02-15T09:39:47;101488.22;;;14.60;77.67
85066;BME280;75401;52.588;13.224;2024-02-15T09:42:13;101497.44;;;14.57;77.61
85066;BME280;75401;52.588;13.224;2024-02-15T09:44:38;101493.97;;;14.65;77.61
85066;BME280;75401;52.588;13.224;2024-02-15T09:47:04;101493.66;;;14.68;77.09
85066;BME280;75401;52.588;13.224;2024-02-15T09:49:35;101491.28;;;14.65;77.73
85066;BME280;75401;52.588;13.224;2024-02-15T09:52:02;101496.16;;;14.69;77.31
85066;BME280;75401;52.588;13.224;2024-02-15T09:54:28;101501.84;;;14.84;77.38
85066;BME280;75401;52.588;13.224;2024-02-15T09:56:55;101495.91;;;14.80;77.22
85066;BME280;75401;52.588;13.224;2024-02-15T09:59:21;101499.31;;;14.90;77.20
85066;BME280;75401;52.588;13.224;2024-02-15T10:01:47;101498.81;;;14.87;77.20
85066;BME280;75401;52.588;13.224;2024-02-15T10:04:13;101498.28;;;14.83;77.42
85066;BME280;75401;52.588;13.224;2024-02-15T10:06:40;101510.47;;;14.95;77.07
85066;BME280;75401;52.588;13.224;2024-02-15T10:09:28;101488.72;;;14.89;76.48
85066;BME280;75401;52.588;13.224;2024-02-15T10:11:54;101496.19;;;15.03;76.46
85066;BME280;75401;52.588;13.224;2024-02-15T10:14:19;101499.25;;;15.08;76.76
85066;BME280;75401;52.588;13.224;2024-02-15T10:16:45;101492.22;;;15.15;76.86
85066;BME280;75401;52.588;13.224;2024-02-15T10:19:10;101494.75;;;15.17;76.48
85066;BME280;75401;52.588;13.224;2024-02-15T10:21:35;101503.06;;;14.97;76.95
85066;BME280;75401;52.588;13.224;2024-02-15T10:24:06;101500.31;;;15.15;76.92
85066;BME280;75401;52.588;13.224;2024-02-15T10:26:32;101493.75;;;15.18;76.58
85066;BME280;75401;52.588;13.224;2024-02-15T10:29:08;101491.75;;;15.28;76.32
85066;BME280;75401;52.588;13.224;2024-02-15T10:31:33;101493.63;;;15.35;76.49
85066;BME280;75401;52.588;13.224;2024-02-15T10:34:02;101481.44;;;15.23;76.26
85066;BME280;75401;52.588;13.224;2024-02-15T10:36:28;101489.88;;;15.28;76.84
85066;BME280;75401;52.588;13.224;2024-02-15T10:38:53;101493.47;;;15.37;76.04
85066;BME280;75401;52.588;13.224;2024-02-15T10:41:37;101490.66;;;15.46;76.59
85066;BME280;75401;52.588;13.224;2024-02-15T10:44:03;101492.16;;;15.49;76.05
85066;BME280;75401;52.588;13.224;2024-02-15T10:46:28;101487.31;;;15.60;76.11
85066;BME280;75401;52.588;13.224;2024-02-15T10:48:55;101485.94;;;15.56;76.20
85066;BME280;75401;52.588;13.224;2024-02-15T10:51:21;101487.16;;;15.70;75.91
85066;BME280;75401;52.588;13.224;2024-02-15T10:53:47;101483.78;;;15.68;75.49
85066;BME280;75401;52.588;13.224;2024-02-15T10:56:18;101491.53;;;15.55;75.94
85066;BME280;75401;52.588;13.224;2024-02-15T10:58:50;101491.03;;;15.59;75.76
85066;BME280;75401;52.588;13.224;2024-02-15T11:01:17;101482.13;;;15.75;75.30
85066;BME280;75401;52.588;13.224;2024-02-15T11:03:48;101484.84;;;15.91;74.78
85066;BME280;75401;52.588;13.224;2024-02-15T11:06:16;101490.41;;;15.98;75.21
85066;BME280;75401;52.588;13.224;2024-02-15T11:08:42;101484.31;;;15.88;75.07
85066;BME280;75401;52.588;13.224;2024-02-15T11:11:08;101479.44;;;15.83;75.11
85066;BME280;75401;52.588;13.224;2024-02-15T11:13:33;101476.88;;;15.82;74.54
85066;BME280;75401;52.588;13.224;2024-02-15T11:16:00;101477.06;;;15.88;75.34
85066;BME280;75401;52.588;13.224;2024-02-15T11:18:43;101473.88;;;16.01;74.70
85066;BME280;75401;52.588;13.224;2024-02-15T11:21:09;101470.69;;;15.89;75.11
85066;BME280;75401;52.588;13.224;2024-02-15T11:23:35;101471.69;;;16.04;74.48
85066;BME280;75401;52.588;13.224;2024-02-15T11:26:00;101471.66;;;15.80;75.07
85066;BME280;75401;52.588;13.224;2024-02-15T11:28:38;101461.41;;;15.92;74.63
85066;BME280;75401;52.588;13.224;2024-02-15T11:31:08;101475.72;;;16.08;74.67
85066;BME280;75401;52.588;13.224;2024-02-15T11:33:34;101479.59;;;16.06;75.09
85066;BME280;75401;52.588;13.224;2024-02-15T11:36:03;101476.91;;;15.98;74.71
85066;BME280;75401;52.588;13.224;2024-02-15T11:38:29;101473.19;;;15.91;74.73
85066;BME280;75401;52.588;13.224;2024-02-15T11:41:01;101478.75;;;15.97;74.46
85066;BME280;75401;52.588;13.224;2024-02-15T11:43:49;101485.66;;;16.08;74.60
85066;BME280;75401;52.588;13.224;2024-02-15T11:46:18;101480.25;;;16.00;74.75
85066;BME280;75401;52.588;13.224;2024-02-15T11:48:43;101479.94;;;16.03;74.72
85066;BME280;75401;52.588;13.224;2024-02-15T11:51:09;101471.34;;;15.83;75.13
85066;BME280;75401;52.588;13.224;2024-02-15T11:53:34;101472.34;;;15.98;74.90
85066;BME280;75401;52.588;13.224;2024-02-15T11:56:00;101474.53;;;15.95;75.08
85066;BME280;75401;52.588;13.224;2024-02-15T11:58:25;101469.31;;;16.01;74.94
85066;BME280;75401;52.588;13.224;2024-02-15T12:00:51;101458.84;;;15.98;74.84
85066;BME280;75401;52.588;13.224;2024-02-15T12:03:18;101458.53;;;16.01;74.71
85066;BME280;75401;52.588;13.224;2024-02-15T12:05:44;101463.06;;;16.01;74.77
85066;BME280;75401;52.588;13.224;2024-02-15T12:08:10;101450.94;;;15.97;74.67
85066;BME280;75401;52.588;13.224;2024-02-15T12:10:36;101456.34;;;15.97;74.79
85066;BME280;75401;52.588;13.224;2024-02-15T12:13:01;101452.09;;;16.02;74.89
85066;BME280;75401;52.588;13.224;2024-02-15T12:15:27;101453.97;;;16.02;74.79
85066;BME280;75401;52.588;13.224;2024-02-15T12:17:52;101444.00;;;16.02;74.55
85066;BME280;75401;52.588;13.224;2024-02-15T12:20:19;101444.19;;;16.01;74.40
85066;BME280;75401;52.588;13.224;2024-02-15T12:22:47;101400.50;;;15.57;74.57
85066;BME280;75401;52.588;13.224;2024-02-15T12:25:14;101446.88;;;16.01;74.57
85066;BME280;75401;52.588;13.224;2024-02-15T12:27:41;101449.59;;;16.09;74.73
85066;BME280;75401;52.588;13.224;2024-02-15T12:30:07;101443.84;;;16.04;74.52
85066;BME280;75401;52.588;13.224;2024-02-15T12:32:37;101446.53;;;16.12;74.55
85066;BME280;75401;52.588;13.224;2024-02-15T12:35:10;101443.66;;;16.13;74.29